Details From MUHA - La Havane Jose Marti Intl
To MUCU - Santiago De Cuba Antonio Maceo Intl
Flight Number -
Tags Decoded
Created
Modified
Stats Distance 413 nm / 765 km
Max Altitude 0 ft / 0 m
Waypoints 4
Social Downloads 2
Likes 0
Share VATSIM

Download

Looking for another format? Having issues loading an existing format? Contact us
Advertisement - Login to hide

Notes

Decoded

Route

MUHA UCM UBY MUCU

ID Type Via Altitude Latitude Longitude Leg Dist Tot Dist Heading (true) Name
O MUHA APT - 0 ft / 0 m 22.97863˚ -82.42494˚ - 0 nm - -
UCM NDB - 0 ft / 0 m 21.39036˚ -77.92908˚ 267 nm 267 nm 110° / 112° -
UBY NDB - 0 ft / 0 m 20.39389˚ -76.61917˚ 94 nm 362 nm 129° / 129° BAYAMO NDB
O MUCU APT - 0 ft / 0 m 19.98075˚ -75.83554˚ 50 nm 413 nm 119° / 119° -

Altitude Profile

Advertisement - Login to hide

Weather


0- 5 10 15 20 25 30 35+ Temperature / ° C

Clouds and Precipitation
Forecast for 2018-05-21 12:00 UTC. Updated 2 hours ago

Ground ~20,000 ft ~40,000 ft Winds

MUHA

Details ICAO MUHA (HAV)
Name Havana Jose Marti Intl
Region Cuba
Timezone America/Havana (UTC-4.0)
Stats Elevation 209 ft / 64 m (AMSL)
Location 22.989154° -82.409086°
Runways 1
Magnetic Variation 4.959° W

METAR

MUHA 211255Z 07006KT 9000 FEW020 BKN050 25/23 Q1015

Decode

TAF

Not found

Departure Runways

ID Width Length Bearing (true) Bearing (mag) Surface Threshold Offset Overrun Length
06 148 ft / 45 m 13,133 ft / 4,003 m 54.21° 59.17° Asphalt 0 ft / 0 m 476 ft / 145 m
24 148 ft / 45 m 13,133 ft / 4,003 m 234.23° 239.19° Asphalt 0 ft / 0 m 197 ft / 60 m

MUCU

Details ICAO MUCU (SCU)
Name Santiago de Cuba Antonio Maceo Intl
Region Cuba
Timezone America/Havana (UTC-4.0)
Stats Elevation 249 ft / 76 m (AMSL)
Location 19.972337° -75.835517°
Runways 2
Magnetic Variation 8.445° W

METAR

MUCU 211253Z VRB02KT 9000 FEW020CB BKN070 27/20 Q1015

Decode

TAF

Not found

Destination Runways

ID Width Length Bearing (true) Bearing (mag) Surface Threshold Offset Overrun Length
09 148 ft / 45 m 13,107 ft / 3,995 m 89.29° 97.74° Asphalt 985 ft / 300 m 0 ft / 0 m
18 148 ft / 45 m 4,272 ft / 1,302 m 179.40° 187.85° Asphalt 0 ft / 0 m 0 ft / 0 m
27 148 ft / 45 m 13,107 ft / 3,995 m 269.30° 277.75° Asphalt 980 ft / 299 m 340 ft / 104 m
36 148 ft / 45 m 4,272 ft / 1,302 m 359.40° 7.85° Asphalt 0 ft / 0 m 0 ft / 0 m

Approach Navaids

Runway Type Ident Frequency Range Bearing (true) Bearing (mag) Slope Elevation
09 Localiser ICU 110.70 MHz 18 nm / 33 km 85.21° 93.66° - 249 ft / 76 m (AMSL)
09 Glidescope ICU 110.70 MHz 10 nm / 19 km 89.30° 97.74° 3.00° 249 ft / 76 m (AMSL)

Popular Alternatives